GMTA/AHU METAR and TAF weather

Enter ICAO airport designator
Station Type Date Time Source
GMTA METAR 2019/02/16 03:00 UTC NOAA

GMTA 160300Z 18004KT 9999 FEW016 SCT026 11/07 Q1022 NOSIG


Station Type Date Time Source
GMTA Decoded METAR 2019/02/16 03:00 UTC NOAA

Al Hoceima, Morocco (GMTA) 35-11N 003-51W 14M
Feb 15, 2019 - 10:00 PM EST / 2019.02.16 0300 UTC
Wind: from the S (180 degrees) at 5 MPH (4 KT):0
Visibility: greater than 7 mile(s):0
Sky conditions: partly cloudy
Temperature: 51 F (11 C)
Dew Point: 44 F (7 C)
Relative Humidity: 76%
Pressure (altimeter): 30.18 in. Hg (1022 hPa)
ob: GMTA 160300Z 18004KT 9999 FEW016 SCT026 11/07 Q1022 NOSIG
cycle: 3

Station Type Date Time Source
GMTA TAF 2019/02/15 18:18 UTC NOAA

TAF GMTA 151700Z 1518/1624 09010KT 8000 FEW010


Example: see airport list